Malaysia Virtual Airlines Airport Information Service

Narita International Airport

ICAO: RJAA Country: Japan
Latitude: 35.7647 Longitude: 140.386
Latest Arrival : MH70 (WMKK-RJAA) Latest Departure : MH9791 (RJAA-RJFF)


WX CaptureLIVE
Data provided by noaa.gov | Fetched at 05:43:23

METAR : RJAA 290500Z VRB03KT 9999 FEW030 BKN/// 14/04 Q1026 BECMG 20005KT RMK 1CU030 A3031

TAF : RJAA 290300Z 2903/3006 20006KT 9999 FEW030 BECMG 2908/2910 36006KT BECMG 3000/3003 16006KT


Runway Data for RJAA
Data provided by openaviationdata.com

Runway ID Mag Var Hdg Length Elevation Surface ILS Freq ILS Id ILS Slope
16L -7 156° 8202 ft 135 ft Asphalt 110.7 ITM 3
16R -7 156° 13132 ft 135 ft Asphalt 111.5 IKF 3
34L -7 336° 13132 ft 135 ft Asphalt 111.9 IYQ 3
34R -7 336° 8202 ft 135 ft Asphalt 110.9 ITJ 3

Narita International Airport, Japan
Use only for reference purposes



Not for navigational purposes.